Sioux Lookout Airport
CYXL : now visible

Airfield :











YOU CAN JOIN US ON...

 
LOGIN :

Register | Disclaimer

   EN    FR    IT 

 









Legend :    VFR   Marginal VFR   IFR   Intensive IFR   Very Intensive IFR
Visi :
Ceiling :
>= 8 km
>= 3000ft
5 to 8 km
1000 to 3000 ft
1500m to 5 km
500 to 1000 ft
800 to 1500m
200 to 500 ft
< 800m
< 200 ft
Symbols :   Thunderstorms  Fog  Heavy snow  Heavy precipitations  Wind > 20 kt






- Airport Elevation : 1258 ft
- IATA code : YXL


CYXL - Sioux Lookout

CURRENT METAR :
  • 201000Z 34004KT 15SM OVC050 M06/M11 A3007 RMK SC8 SLP207

EXPIRED METARs :
  • 200900Z 34004KT 15SM BKN048 BKN190 M07/M12 A3006 RMK SC5CI1 SLP207
  • 200800Z 36004KT 340V050 15SM SCT190 M06/M13 A3006 RMK CI4 SLP205

TAF TAF CYXL
Valid from the 20 at 08:00 until the 20 at 20:00 UTC


200738Z 2008/2020 VRB03KT P6SM SCT060
TEMPO 2008/2018 BKN060 BKN180
BECMG 2013/2015 34008KT
FM201800 32010KT P6SM OVC050 RMK NXT FCST BY 201400Z
CZWG FIR / North America



MET'MAP, your aeronautical weather chart ! - Copyright ORBIFLY December 2007 - Disclaimer

ORBIFLY MET'MAP TEAM :

Programming & Development : Alexandra Zaïnal
Concept & original design : Baudouin d'Aumeries
Assistance for programming : Marc-Olivier Méhu
Technical & hardware support : Manuel Goepfert

Contact : metmap@orbifly.com




SOURCES & CREDITS :

   NOAA       Earth
Advisory